Stevenson, Connecticut
Current Conditions -  °F | °C
As of 6:50 AM on Friday 31 Oct 2014 (Local Time) from KOXC Reporting Station
Broken Clouds Broken Clouds  
Wind Chill: 34°   Ceiling: 4500
Heat Index: 39°   Visibility: 10mi
Dew Point: 27°   Wind: 7mph
Humidity: 61%   Direction: 40°NE
Pressure: 30.02"   Gusts: NA
Location:  41.38°N, 73.18°W
Report Text: KOXC 311050Z 04006KT 10SM BKN045 04/M03 A3002
Loading
Personal Weather Stations






























Interactive Weather Map New forecast layout! Learn more

10-Day Weather Forecast

Advertisements
Track Severe Weather on mobile